Kezdőlap
METAR-TAF:

METAR-TAF

Repülőterek :

Pisai nemzetközi repülőtér

Pisa, Olaszország

földrajzi szélesség: 43-41N, földrajzi hosszúság: 010-23E, magasság: 2 m

Jelenlegi meteorológiai megfigyelések

A jelentés 53 perccel ezelõtt készült, 08:45 UTC
Keleti szél 5 kt
Hőmérséklet 5°C
Páratartalom 70%
Légköri nyomás 1016 hPa
Látótávolság 10 km, vagy több
Szakadozott felhőzet 4000 lábon

METAR: LIRP 280845Z 09005KT 9999 BKN040 05/00 Q1016 NOSIG

Idő: 10:38 (09:38 UTC)

Előrejelzés

A jelentés 4 órával és 38 perccel ezelõtt készült, 05:00 UTC
Az előrejelzés 28-én 06 óra UTC és 29-én 06 óra UTC között érvényes
Délkeleti szél 5 kt
Látótávolság 10 km, vagy több
Szakadozott felhőzet 3000 lábon
28-én 22 óra UTC és 29-én 06 óra UTC között ideiglenes
Látótávolság: 5000 m
Párásság

TAF: LIRP 280500Z 2806/2906 13005KT 9999 BKN030 TEMPO 2822/2906 5000 BR

Meteorológiai megfigyelések és előrejelzések több, mint 4000 repülőtéren (METAR és TAF jelentéseket).

A térképen piros és sárga pontok jelzik az elérhető meteorológiai állomásokat.

Mozgassa az egeret a pont fölött, hogy megjelenjen az állomás neve.

Azután kattintson az időjárási megfigyelések és előrejelzések megtekintéséhez.

A térkép megváltoztatása: kattintson a fekete keresztel jelölt zöld gombra ráközelítéshez, a vonallal jelölt zöld gombra távolításhoz, vagy a zöld nyilakra a szomszédos térképek eléréséhez.


METAR-TAF: